Time;durP1;ratioP1;P1;durP2;ratioP2;P2;SDS_P1;SDS_P2;PMS_P1;PMS_P2;Temp;Humidity;BMP_temperature;BMP_pressure;BME280_temperature;BME280_humidity;BME280_pressure;Samples;Min_cycle;Max_cycle;Signal;HPM_P1;HPM_P2
2022/05/10 00:01:37;;;;;;;4.85;2.30;;;;;;;19.11;60.48;101273.34;7388270;19;20102;-68
2022/05/10 00:04:07;;;;;;;4.55;2.17;;;;;;;19.12;61.10;101275.00;7386806;19;20441;-67
2022/05/10 00:06:38;;;;;;;7.85;2.78;;;;;;;19.12;60.07;101282.19;7401670;19;20074;-68
2022/05/10 00:09:11;;;;;;;6.10;2.08;;;;;;;19.12;60.55;101275.00;7400636;19;20006;-67
2022/05/10 00:11:43;;;;;;;;;;;;;;;19.15;60.96;101271.09;7400892;19;20479;-69
2022/05/10 00:14:11;;;;;;;5.88;2.60;;;;;;;19.10;60.42;101268.22;7398841;19;19919;-68
2022/05/10 00:16:42;;;;;;;5.03;3.05;;;;;;;19.06;59.93;101269.63;7399518;19;20038;-68
2022/05/10 00:19:13;;;;;;;7.10;2.55;;;;;;;19.06;60.38;101266.97;7397210;19;20040;-69
2022/05/10 00:21:40;;;;;;;5.88;2.92;;;;;;;19.05;60.47;101260.78;7398939;19;20018;-69
2022/05/10 00:24:07;;;;;;;7.05;3.15;;;;;;;19.04;61.47;101264.50;7401763;19;20070;-68
2022/05/10 00:26:35;;;;;;;7.78;2.60;;;;;;;19.02;60.55;101261.19;7402186;19;20033;-68
2022/05/10 00:29:02;;;;;;;5.85;2.10;;;;;;;19.02;60.10;101261.19;7401495;19;20018;-67
2022/05/10 00:31:30;;;;;;;7.22;2.22;;;;;;;19.01;60.53;101253.38;7398675;19;20007;-68
2022/05/10 00:33:59;;;;;;;4.75;2.28;;;;;;;18.99;60.73;101253.59;7398797;19;20011;-68
2022/05/10 00:36:27;;;;;;;7.00;2.92;;;;;;;19.01;62.21;101251.53;7399966;19;20026;-68
2022/05/10 00:38:54;;;;;;;9.10;2.40;;;;;;;19.03;61.50;101246.03;7400202;19;20455;-68
2022/05/10 00:41:41;;;;;;;6.55;2.30;;;;;;;19.03;61.05;101252.19;7400076;19;20015;-69
2022/05/10 00:44:14;;;;;;;6.82;2.40;;;;;;;19.02;60.78;101250.53;7399177;19;20410;-68
2022/05/10 00:46:51;;;;;;;7.20;2.33;;;;;;;19.02;61.40;101242.53;7398044;19;20030;-69
2022/05/10 00:49:27;;;;;;;7.55;2.67;;;;;;;19.02;61.07;101233.69;7399622;19;20033;-67
2022/05/10 00:52:05;;;;;;;5.82;2.90;;;;;;;19.01;62.62;101222.22;7401586;19;20019;-68
2022/05/10 00:54:46;;;;;;;5.63;1.98;;;;;;;18.98;61.41;101227.94;7401546;19;20014;-68
2022/05/10 00:57:28;;;;;;;5.95;1.98;;;;;;;18.99;61.43;101220.78;7397304;19;20046;-67
2022/05/10 01:00:09;;;;;;;5.95;2.22;;;;;;;19.00;61.75;101233.88;7398368;19;20028;-67
2022/05/10 01:02:44;;;;;;;6.47;2.28;;;;;;;18.96;61.41;101227.31;7400078;19;20070;-68
2022/05/10 01:05:18;;;;;;;5.28;2.15;;;;;;;18.95;62.29;101225.66;7401158;19;20046;-67
2022/05/10 01:07:53;;;;;;;6.85;2.40;;;;;;;18.93;61.77;101222.38;7402085;19;20007;-67
2022/05/10 01:10:38;;;;;;;4.22;2.22;;;;;;;18.89;62.15;101218.47;7398987;19;20034;-68
2022/05/10 01:13:18;;;;;;;5.82;2.45;;;;;;;18.88;62.24;101208.81;7401488;19;20518;-67
2022/05/10 01:15:56;;;;;;;8.07;2.85;;;;;;;18.85;62.45;101205.69;7395421;19;20014;-67
2022/05/10 01:18:24;;;;;;;6.70;3.40;;;;;;;18.85;62.51;101213.69;7391820;19;20015;-67
2022/05/10 01:20:58;;;;;;;8.82;3.35;;;;;;;18.86;63.00;101196.69;7393717;19;20031;-67
2022/05/10 01:23:26;;;;;;;10.20;2.83;;;;;;;18.84;62.80;101201.41;7394328;19;20014;-67
2022/05/10 01:26:03;;;;;;;6.82;2.80;;;;;;;18.83;63.04;101200.59;7390405;19;20482;-67
2022/05/10 01:28:38;;;;;;;7.00;3.22;;;;;;;18.84;63.69;101198.75;7393409;19;20509;-68
2022/05/10 01:31:19;;;;;;;7.20;2.95;;;;;;;18.83;64.01;101194.44;7392758;19;20038;-70
2022/05/10 01:33:53;;;;;;;9.15;2.97;;;;;;;18.77;64.32;101188.03;7393874;19;20015;-68
2022/05/10 01:36:39;;;;;;;8.40;3.50;;;;;;;18.74;65.48;101191.13;7390602;19;20647;-67
2022/05/10 01:39:23;;;;;;;6.53;3.38;;;;;;;18.71;64.95;101183.50;7388162;19;20102;-68
2022/05/10 01:42:03;;;;;;;7.13;3.08;;;;;;;18.66;64.61;101181.41;7392453;19;20015;-67
2022/05/10 01:44:34;;;;;;;9.77;3.05;;;;;;;18.67;65.36;101184.91;7392508;19;20050;-67
2022/05/10 01:47:14;;;;;;;9.10;2.92;;;;;;;18.65;64.88;101168.28;7390346;19;20487;-67
2022/05/10 01:49:47;;;;;;;7.45;3.00;;;;;;;18.61;64.94;101162.53;7388939;19;20014;-68
2022/05/10 01:52:24;;;;;;;8.45;3.25;;;;;;;18.64;66.31;101156.78;7392961;19;20038;-68
2022/05/10 01:55:00;;;;;;;11.45;3.17;;;;;;;18.65;65.58;101142.44;7393237;19;20010;-69
2022/05/10 01:57:29;;;;;;;5.97;2.95;;;;;;;18.66;65.56;101128.09;7389636;19;20066;-68
2022/05/10 02:00:11;;;;;;;6.15;3.20;;;;;;;18.65;65.61;101122.94;7389240;19;20023;-69
2022/05/10 02:02:43;;;;;;;10.00;3.70;;;;;;;18.63;65.26;101133.00;7389485;19;20476;-68
2022/05/10 02:05:26;;;;;;;8.52;3.70;;;;;;;18.65;65.31;101129.09;7389117;19;20007;-68
2022/05/10 02:08:00;;;;;;;9.65;3.65;;;;;;;18.64;66.13;101126.66;7393373;19;20070;-68
2022/05/10 02:10:38;;;;;;;8.00;3.20;;;;;;;18.65;65.69;101122.94;7388924;19;20365;-69
2022/05/10 02:13:12;;;;;;;10.75;4.05;;;;;;;18.61;65.59;101119.03;7392657;19;20078;-69
2022/05/10 02:16:01;;;;;;;9.10;3.53;;;;;;;18.60;65.93;101114.72;7392917;19;20046;-66
2022/05/10 02:18:41;;;;;;;8.45;3.53;;;;;;;18.53;66.13;101101.34;7391811;19;20006;-67
2022/05/10 02:21:16;;;;;;;10.43;4.90;;;;;;;18.53;65.85;101104.03;7389406;19;20409;-68
2022/05/10 02:23:55;;;;;;;7.05;3.65;;;;;;;18.53;66.51;101111.19;7392180;19;20010;-67
2022/05/10 02:26:34;;;;;;;7.57;3.15;;;;;;;18.55;66.35;101095.84;7389104;19;20463;-68
2022/05/10 02:29:12;;;;;;;9.25;3.50;;;;;;;18.58;65.96;101096.28;7391232;19;20006;-68
2022/05/10 02:34:35;;;;;;;5.80;3.10;;;;;;;18.53;66.19;101097.88;7389048;19;20003;-68
2022/05/10 02:37:03;;;;;;;11.30;4.70;;;;;;;18.52;66.18;101101.53;7390084;19;20046;-68
2022/05/10 02:39:30;;;;;;;8.43;3.60;;;;;;;18.52;66.70;101102.38;7389332;19;20014;-67
2022/05/10 02:41:59;;;;;;;9.13;4.07;;;;;;;18.50;66.27;101095.56;7391872;19;20010;-67
2022/05/10 02:44:27;;;;;;;8.27;3.17;;;;;;;18.48;65.96;101092.31;7387958;19;20025;-69
2022/05/10 02:46:57;;;;;;;10.55;3.50;;;;;;;18.44;66.20;101093.72;7387346;19;20018;-69
2022/05/10 02:49:24;;;;;;;7.20;4.03;;;;;;;18.42;66.49;101093.91;7386902;19;20007;-70
2022/05/10 02:51:51;;;;;;;8.18;3.38;;;;;;;18.42;66.62;101093.09;7390209;19;20218;-68
2022/05/10 02:54:18;;;;;;;8.32;3.50;;;;;;;18.38;66.67;101092.69;7392829;19;20045;-67
2022/05/10 02:56:45;;;;;;;5.95;3.03;;;;;;;18.40;66.57;101095.94;7392928;19;20011;-67
2022/05/10 02:59:18;;;;;;;8.27;3.35;;;;;;;18.37;65.78;101101.69;7390486;19;20082;-67
2022/05/10 03:02:05;;;;;;;9.85;3.03;;;;;;;18.35;66.53;101099.19;7387183;19;20026;-68
2022/05/10 03:04:34;;;;;;;7.25;3.13;;;;;;;18.32;65.92;101102.28;7386379;19;20010;-67
2022/05/10 03:07:04;;;;;;;8.30;3.25;;;;;;;18.26;66.62;101110.22;7386250;19;20078;-67
2022/05/10 03:09:32;;;;;;;13.30;6.03;;;;;;;18.24;66.81;101091.75;7385155;19;20044;-69
2022/05/10 03:12:01;;;;;;;8.35;3.80;;;;;;;18.27;67.15;101091.38;7382708;19;20025;-66
2022/05/10 03:14:28;;;;;;;7.05;3.00;;;;;;;18.30;66.27;101093.63;7391314;19;20018;-67
2022/05/10 03:16:56;;;;;;;7.55;2.88;;;;;;;18.29;66.27;101083.16;7387777;19;20022;-67
2022/05/10 03:19:23;;;;;;;8.02;3.53;;;;;;;18.27;66.52;101077.22;7387229;19;20011;-68
2022/05/10 03:21:51;;;;;;;7.45;3.47;;;;;;;18.28;66.03;101079.72;7392806;19;20476;-68
2022/05/10 03:24:19;;;;;;;5.97;2.85;;;;;;;18.28;65.95;101065.56;7389884;19;20015;-68
2022/05/10 03:26:49;;;;;;;6.95;3.10;;;;;;;18.29;67.25;101068.00;7391136;19;20003;-66
2022/05/10 03:29:17;;;;;;;4.78;2.75;;;;;;;18.31;66.56;101057.16;7389978;19;20014;-68
2022/05/10 03:31:45;;;;;;;6.97;2.67;;;;;;;18.28;64.81;101053.06;7387295;19;20014;-68
2022/05/10 03:36:43;;;;;;;5.90;2.15;;;;;;;18.21;64.10;101054.03;7387755;19;20018;-69
2022/05/10 03:39:10;;;;;;;6.30;2.03;;;;;;;18.19;63.75;101048.91;7384650;19;20021;-68
2022/05/10 03:41:37;;;;;;;6.88;2.03;;;;;;;18.16;63.89;101049.31;7387341;19;20404;-68
2022/05/10 03:44:06;;;;;;;6.22;2.30;;;;;;;18.21;64.13;101051.38;7387470;19;20038;-68
2022/05/10 03:46:34;;;;;;;4.53;1.80;;;;;;;18.20;62.81;101039.91;7385944;19;20010;-68
2022/05/10 03:49:02;;;;;;;5.63;1.70;;;;;;;18.18;62.24;101044.63;7386190;19;20006;-67
2022/05/10 03:51:29;;;;;;;5.97;1.75;;;;;;;18.18;61.64;101062.44;7388033;19;20029;-68
2022/05/10 03:53:57;;;;;;;3.20;1.30;;;;;;;18.14;61.52;101046.00;7390356;19;20019;-67
2022/05/10 03:56:25;;;;;;;5.53;1.23;;;;;;;18.11;61.53;101050.91;7389047;19;20019;-69
2022/05/10 03:58:52;;;;;;;5.60;2.10;;;;;;;18.09;62.32;101053.75;7386337;19;20038;-68
2022/05/10 04:01:20;;;;;;;4.68;1.55;;;;;;;18.10;61.70;101055.41;7385896;19;20018;-69
2022/05/10 04:03:48;;;;;;;6.88;1.55;;;;;;;18.05;61.14;101049.03;7384736;19;20015;-67
2022/05/10 04:06:16;;;;;;;5.47;1.50;;;;;;;18.01;60.79;101050.44;7387282;19;20042;-68
2022/05/10 04:08:45;;;;;;;3.55;1.13;;;;;;;17.98;60.24;101059.63;7385501;19;20014;-67
2022/05/10 04:11:13;;;;;;;3.88;1.40;;;;;;;17.97;60.83;101054.53;7384403;19;20015;-66
2022/05/10 04:13:43;;;;;;;3.65;1.30;;;;;;;17.94;60.61;101056.53;7384349;19;20047;-69
2022/05/10 04:16:11;;;;;;;3.38;1.17;;;;;;;17.92;60.86;101049.78;7384521;19;20013;-69
2022/05/10 04:18:38;;;;;;;3.03;1.27;;;;;;;17.92;60.76;101047.94;7388280;19;20018;-69
2022/05/10 04:21:06;;;;;;;2.83;0.90;;;;;;;17.93;60.63;101040.75;7384587;19;20018;-69
2022/05/10 04:23:33;;;;;;;2.05;0.98;;;;;;;17.96;59.56;101056.34;7386926;19;20042;-67
2022/05/10 04:26:13;;;;;;;3.20;0.90;;;;;;;17.95;59.45;101058.19;7389284;19;20017;-69
2022/05/10 04:28:42;;;;;;;2.30;0.90;;;;;;;17.92;59.11;101052.44;7388619;19;20018;-68
2022/05/10 04:31:10;;;;;;;3.35;0.75;;;;;;;17.82;58.66;101052.78;7384006;19;20037;-68
2022/05/10 04:33:39;;;;;;;3.67;1.00;;;;;;;17.83;60.48;101045.59;7387642;19;20018;-68
2022/05/10 04:36:08;;;;;;;1.95;0.88;;;;;;;17.85;58.77;101052.41;7384006;19;20007;-69
2022/05/10 04:38:44;;;;;;;4.28;0.60;;;;;;;17.81;58.23;101045.00;7385372;19;20010;-69
2022/05/10 04:43:54;;;;;;;1.60;0.60;;;;;;;17.74;58.41;101042.28;7384248;19;20011;-68
2022/05/10 04:46:22;;;;;;;3.13;0.50;;;;;;;17.73;58.81;101032.63;7385738;19;20010;-68
2022/05/10 04:48:49;;;;;;;3.05;0.90;;;;;;;17.75;59.47;101037.78;7383633;19;20472;-67
2022/05/10 04:51:17;;;;;;;2.42;0.77;;;;;;;17.74;58.46;101036.94;7387674;19;20010;-67
2022/05/10 04:53:45;;;;;;;2.80;0.60;;;;;;;17.73;58.62;101042.47;7390777;19;20384;-67
2022/05/10 04:56:12;;;;;;;2.85;0.80;;;;;;;17.72;58.12;101035.50;7394469;19;20011;-68
2022/05/10 04:58:40;;;;;;;2.60;1.13;;;;;;;17.64;57.96;101033.81;7391037;19;20030;-69
2022/05/10 05:01:09;;;;;;;2.92;0.70;;;;;;;17.62;58.83;101025.22;7394869;19;20011;-68
2022/05/10 05:03:37;;;;;;;2.20;0.90;;;;;;;17.63;59.42;101036.66;7394181;19;20034;-68
2022/05/10 05:06:04;;;;;;;4.68;1.00;;;;;;;17.59;58.57;101046.88;7391970;19;20389;-68
2022/05/10 05:08:31;;;;;;;2.28;0.70;;;;;;;17.53;58.58;101039.63;7390748;19;20018;-67
2022/05/10 05:11:01;;;;;;;1.77;0.70;;;;;;;17.50;59.11;101040.03;7391148;19;20018;-67
2022/05/10 05:13:28;;;;;;;2.50;0.70;;;;;;;17.47;59.03;101046.53;7390439;19;20486;-69
2022/05/10 05:15:56;;;;;;;2.92;0.70;;;;;;;17.48;59.78;101045.53;7393007;19;20440;-69
2022/05/10 05:18:24;;;;;;;3.45;0.80;;;;;;;17.52;59.70;101040.66;7393059;19;20014;-68
2022/05/10 05:20:51;;;;;;;3.55;0.85;;;;;;;17.50;61.19;101048.84;7388429;19;20451;-69
2022/05/10 05:23:21;;;;;;;3.17;0.70;;;;;;;17.56;60.61;101052.56;7392071;19;20007;-68
2022/05/10 05:25:49;;;;;;;2.40;0.70;;;;;;;17.54;59.85;101044.75;7390326;19;20018;-68
2022/05/10 05:28:16;;;;;;;2.63;0.90;;;;;;;17.50;60.06;101051.50;7391708;19;20393;-68
2022/05/10 05:30:44;;;;;;;5.38;0.98;;;;;;;17.43;61.05;101058.59;7391677;19;20011;-68
2022/05/10 05:33:13;;;;;;;1.88;0.82;;;;;;;17.42;60.55;101056.94;7389745;19;20658;-68
2022/05/10 05:35:41;;;;;;;3.35;0.90;;;;;;;17.44;61.51;101056.75;7393885;19;20522;-68
2022/05/10 05:38:09;;;;;;;3.42;1.10;;;;;;;17.44;61.91;101060.25;7392964;19;20014;-68
2022/05/10 05:40:37;;;;;;;2.28;0.82;;;;;;;17.45;61.41;101063.72;7391277;19;20014;-70
2022/05/10 05:43:06;;;;;;;3.35;0.90;;;;;;;17.45;61.55;101069.88;7391157;19;20021;-68
2022/05/10 05:45:34;;;;;;;5.15;1.10;;;;;;;17.41;61.85;101067.78;7391143;19;20039;-67
2022/05/10 05:48:01;;;;;;;5.55;1.20;;;;;;;17.37;62.27;101066.53;7391185;19;20002;-68
2022/05/10 05:50:30;;;;;;;4.80;1.23;;;;;;;17.31;63.28;101070.78;7391772;19;20025;-68
2022/05/10 05:52:58;;;;;;;3.53;1.42;;;;;;;17.26;64.60;101078.50;7390825;19;20354;-69
2022/05/10 05:55:25;;;;;;;4.22;1.98;;;;;;;17.31;64.79;101075.25;7390772;19;20018;-69
2022/05/10 05:57:53;;;;;;;6.53;2.17;;;;;;;17.37;64.28;101063.88;7390930;19;20007;-69
2022/05/10 06:00:23;;;;;;;7.68;2.03;;;;;;;17.41;64.70;101065.13;7387683;19;20011;-68
2022/05/10 06:02:50;;;;;;;7.72;1.88;;;;;;;17.45;65.60;101066.38;7387673;19;20526;-70
2022/05/10 06:05:20;;;;;;;4.25;1.85;;;;;;;17.40;65.42;101072.28;7388787;19;20086;-68
2022/05/10 06:07:47;;;;;;;8.68;2.95;;;;;;;17.45;67.81;101061.88;7389141;19;20351;-67
2022/05/10 06:10:15;;;;;;;6.63;2.45;;;;;;;17.48;66.95;101058.84;7387660;19;20050;-68
2022/05/10 06:12:43;;;;;;;3.55;2.00;;;;;;;17.51;66.55;101065.63;7389019;19;20070;-69
2022/05/10 06:15:15;;;;;;;5.40;2.03;;;;;;;17.46;66.92;101065.38;7387960;19;20065;-68
2022/05/10 06:17:44;;;;;;;6.93;2.15;;;;;;;17.44;67.00;101067.41;7392023;19;20476;-67
2022/05/10 06:20:15;;;;;;;4.63;2.20;;;;;;;17.47;67.84;101067.03;7387755;19;20021;-68
2022/05/10 06:22:44;;;;;;;7.35;2.88;;;;;;;17.49;68.38;101059.66;7391679;19;20110;-68
2022/05/10 06:25:17;;;;;;;6.53;2.95;;;;;;;17.50;69.41;101069.28;7390163;19;20018;-69
2022/05/10 06:30:20;;;;;;;6.47;3.33;;;;;;;17.53;70.59;101067.06;7390290;19;20011;-68
2022/05/10 06:32:50;;;;;;;8.18;2.90;;;;;;;17.50;70.42;101074.63;7388598;19;20029;-68
2022/05/10 06:35:19;;;;;;;6.82;2.90;;;;;;;17.40;70.75;101084.75;7392566;19;20496;-70
2022/05/10 06:40:19;;;;;;;8.70;3.13;;;;;;;17.25;72.56;101073.38;7386740;19;20015;-67
2022/05/10 06:42:46;;;;;;;6.40;3.17;;;;;;;17.23;72.95;101068.22;7391137;19;20034;-68
2022/05/10 06:45:16;;;;;;;6.75;3.03;;;;;;;17.26;73.38;101078.50;7388964;19;20050;-69
2022/05/10 06:47:46;;;;;;;5.80;2.83;;;;;;;17.20;73.43;101079.25;7390933;19;20364;-70
2022/05/10 06:50:17;;;;;;;6.15;2.85;;;;;;;17.24;74.04;101077.03;7386562;19;20007;-67
2022/05/10 06:52:45;;;;;;;9.30;3.60;;;;;;;17.22;74.18;101074.56;7387371;19;20011;-68
2022/05/10 06:55:15;;;;;;;7.05;3.40;;;;;;;17.18;74.08;101085.75;7387366;19;20015;-69
2022/05/10 06:57:45;;;;;;;9.40;4.45;;;;;;;17.09;74.03;101087.72;7390041;19;20389;-68
2022/05/10 07:00:16;;;;;;;8.82;3.75;;;;;;;17.08;74.51;101080.75;7390496;19;20056;-70
2022/05/10 07:02:47;;;;;;;8.18;3.67;;;;;;;17.08;74.66;101083.41;7385486;19;20039;-68
2022/05/10 07:05:17;;;;;;;9.38;3.28;;;;;;;17.09;74.83;101071.78;7385060;19;20014;-68
2022/05/10 07:07:45;;;;;;;9.48;3.90;;;;;;;17.08;75.54;101072.78;7388384;19;20038;-68
2022/05/10 07:10:14;;;;;;;10.15;3.88;;;;;;;17.05;74.95;101078.50;7385867;19;20023;-67
2022/05/10 07:12:44;;;;;;;7.57;3.65;;;;;;;17.01;75.35;101080.72;7389626;19;20014;-67
2022/05/10 07:15:21;;;;;;;15.50;4.95;;;;;;;17.07;77.08;101084.41;7388407;19;20058;-67
2022/05/10 07:17:52;;;;;;;7.70;3.70;;;;;;;17.12;75.61;101075.91;7388330;19;20021;-70
2022/05/10 07:20:25;;;;;;;9.48;3.83;;;;;;;17.17;76.07;101078.81;7385640;19;20040;-68
2022/05/10 07:22:58;;;;;;;5.65;3.00;;;;;;;17.22;77.03;101074.56;7387378;19;20007;-70
2022/05/10 07:25:31;;;;;;;10.85;3.65;;;;;;;17.28;76.08;101079.13;7386294;19;20097;-69
2022/05/10 07:28:00;;;;;;;6.88;3.30;;;;;;;17.27;75.39;101074.00;7387686;19;20022;-70
2022/05/10 07:30:32;;;;;;;9.23;3.40;;;;;;;17.31;75.58;101072.59;7385204;19;20018;-70
2022/05/10 07:33:00;;;;;;;7.78;3.13;;;;;;;17.32;75.66;101069.72;7384191;19;20018;-70
2022/05/10 07:37:58;;;;;;;8.48;3.28;;;;;;;17.34;76.15;101070.38;7390723;19;20476;-68
2022/05/10 07:40:27;;;;;;;6.05;3.00;;;;;;;17.29;74.97;101067.47;7384745;19;20463;-67
2022/05/10 07:42:54;;;;;;;7.28;3.05;;;;;;;17.25;75.58;101066.22;7363319;19;20011;-68
2022/05/10 07:45:21;;;;;;;7.88;3.40;;;;;;;17.31;76.72;101070.78;7382236;19;20011;-68
2022/05/10 07:47:54;;;;;;;9.52;3.15;;;;;;;17.27;75.27;101069.47;7387131;19;20007;-69
2022/05/10 07:50:21;;;;;;;13.07;5.18;;;;;;;17.24;75.08;101066.38;7387457;19;20018;-67
2022/05/10 07:52:48;;;;;;;9.93;5.47;;;;;;;17.22;75.93;101066.56;7384226;19;20045;-67
2022/05/10 07:55:16;;;;;;;8.13;3.15;;;;;;;17.28;76.81;101065.00;7384798;19;20011;-67
2022/05/10 07:57:43;;;;;;;8.20;4.68;;;;;;;17.33;79.61;101066.06;7383496;19;20126;-68
2022/05/10 08:00:13;;;;;;;8.50;3.72;;;;;;;17.34;78.54;101073.03;7382366;19;20471;-68
2022/05/10 08:02:43;;;;;;;12.40;5.43;;;;;;;17.29;77.71;101072.78;7384185;19;20033;-68
2022/05/10 08:05:17;;;;;;;7.07;3.58;;;;;;;17.28;77.20;101079.13;7383073;19;20010;-68
2022/05/10 08:07:44;;;;;;;8.32;4.03;;;;;;;17.27;76.73;101074.00;7382832;19;20480;-69
2022/05/10 08:10:12;;;;;;;10.35;4.20;;;;;;;17.28;76.78;101081.78;7382815;19;20003;-67
2022/05/10 08:12:39;;;;;;;6.88;3.28;;;;;;;17.31;76.11;101075.25;7382937;19;20045;-68
2022/05/10 08:15:09;;;;;;;7.50;3.88;;;;;;;17.33;76.23;101081.19;7383477;19;20022;-68
2022/05/10 08:17:52;;;;;;;10.20;4.07;;;;;;;17.30;76.48;101078.94;7381356;19;20015;-67
2022/05/10 08:20:40;;;;;;;6.10;3.03;;;;;;;17.30;76.09;101079.75;7387717;19;20476;-69
2022/05/10 08:23:09;;;;;;;11.25;3.97;;;;;;;17.29;76.76;101088.75;7382122;19;20337;-68
2022/05/10 08:25:37;;;;;;;7.18;3.45;;;;;;;17.27;76.79;101074.81;7385147;19;20018;-69
2022/05/10 08:28:06;;;;;;;8.50;4.15;;;;;;;17.32;77.54;101080.38;7391419;19;20484;-69
2022/05/10 08:30:33;;;;;;;8.02;4.47;;;;;;;17.38;77.68;101084.94;7390409;19;20025;-69
2022/05/10 08:33:02;;;;;;;8.40;4.88;;;;;;;17.44;77.89;101086.00;7389524;19;20014;-68
2022/05/10 08:35:40;;;;;;;7.82;3.70;;;;;;;17.44;77.01;101092.16;7389918;19;20031;-68
2022/05/10 08:38:08;;;;;;;7.43;3.13;;;;;;;17.41;76.29;101084.56;7389331;19;20466;-69
2022/05/10 08:40:41;;;;;;;6.45;3.13;;;;;;;17.37;76.23;101083.28;7388177;19;20029;-69
2022/05/10 08:43:18;;;;;;;6.18;2.42;;;;;;;17.41;76.45;101079.25;7391840;19;20309;-68
2022/05/10 08:45:46;;;;;;;5.72;3.30;;;;;;;17.44;76.19;101078.88;7387247;19;20030;-67
2022/05/10 08:48:13;;;;;;;8.05;3.67;;;;;;;17.46;77.91;101079.50;7393150;19;20014;-67
2022/05/10 08:50:46;;;;;;;7.03;2.67;;;;;;;17.41;76.74;101081.09;7389132;19;20014;-69
2022/05/10 08:53:15;;;;;;;11.10;3.53;;;;;;;17.42;76.80;101078.22;7391639;19;20343;-68
2022/05/10 08:55:51;;;;;;;4.75;2.65;;;;;;;17.45;76.78;101080.50;7391624;19;20003;-69
2022/05/10 08:58:25;;;;;;;8.52;2.88;;;;;;;17.46;76.90;101076.84;7388500;19;20338;-70
2022/05/10 09:01:23;;;;;;;15.60;7.93;;;;;;;17.49;77.66;101076.44;7387501;19;20021;-70
2022/05/10 09:03:57;;;;;;;6.55;3.55;;;;;;;17.45;77.20;101072.53;7390791;19;20026;-68
2022/05/10 09:06:36;;;;;;;5.63;2.83;;;;;;;17.44;77.06;101083.34;7391457;19;20011;-68
2022/05/10 09:09:07;;;;;;;7.35;2.55;;;;;;;17.42;76.95;101078.22;7390838;19;20356;-69
2022/05/10 09:12:05;;;;;;;7.82;2.72;;;;;;;17.42;77.44;101080.88;7388354;19;20110;-69
2022/05/10 09:14:34;;;;;;;10.75;3.67;;;;;;;17.40;77.85;101074.94;7392958;19;20014;-67
2022/05/10 09:17:03;;;;;;;6.50;3.10;;;;;;;17.43;77.92;101073.72;7393688;19;20018;-67
2022/05/10 09:19:39;;;;;;;7.90;2.63;;;;;;;17.46;77.42;101076.84;7392768;19;20026;-68
2022/05/10 09:22:32;;;;;;;11.85;2.65;;;;;;;17.44;77.22;101078.03;7394509;19;20372;-67
2022/05/10 09:25:01;;;;;;;5.60;2.15;;;;;;;17.41;77.67;101078.44;7388479;19;20036;-69
2022/05/10 09:27:32;;;;;;;7.50;2.63;;;;;;;17.38;77.74;101068.16;7392345;19;20033;-69
2022/05/10 09:30:00;;;;;;;5.18;2.88;;;;;;;17.38;78.18;101070.81;7388706;19;20219;-69
2022/05/10 09:35:09;;;;;;;6.03;2.90;;;;;;;17.48;78.29;101065.97;7388304;19;20014;-67
2022/05/10 09:37:48;;;;;;;5.55;3.10;;;;;;;17.48;77.77;101063.31;7387717;19;20123;-67
2022/05/10 09:40:22;;;;;;;4.70;3.45;;;;;;;17.48;77.70;101063.31;7388726;19;20304;-68
2022/05/10 09:42:52;;;;;;;9.52;6.20;;;;;;;17.48;78.17;101061.50;7392554;19;20014;-67
2022/05/10 09:45:24;;;;;;;9.38;5.57;;;;;;;17.50;78.35;101069.28;7386889;19;20056;-68
2022/05/10 09:47:58;;;;;;;9.15;5.15;;;;;;;17.48;78.28;101072.13;7389009;19;20071;-70
2022/05/10 09:50:36;;;;;;;12.55;6.63;;;;;;;17.48;79.08;101068.66;7388226;19;20525;-67
2022/05/10 09:53:08;;;;;;;14.27;7.13;;;;;;;17.46;80.01;101068.88;7391978;19;20025;-67
2022/05/10 09:55:36;;;;;;;11.52;6.75;;;;;;;17.44;80.92;101070.06;7390298;19;20027;-67
2022/05/10 09:58:09;;;;;;;14.77;9.43;;;;;;;17.43;82.04;101069.22;7390204;19;20007;-67
2022/05/10 10:00:40;;;;;;;14.43;9.20;;;;;;;17.42;82.84;101067.56;7388702;19;20010;-68
2022/05/10 10:03:09;;;;;;;15.85;9.82;;;;;;;17.38;83.46;101076.13;7387561;19;20018;-67
2022/05/10 10:05:37;;;;;;;15.55;8.30;;;;;;;17.36;84.07;101070.19;7388334;19;20496;-67
2022/05/10 10:08:04;;;;;;;17.23;7.57;;;;;;;17.33;84.45;101067.91;7386520;19;20304;-67
2022/05/10 10:10:36;;;;;;;15.25;7.63;;;;;;;17.31;85.12;101067.28;7389063;19;20388;-67
2022/05/10 10:13:29;;;;;;;19.67;11.57;;;;;;;17.26;86.20;101067.03;7387368;19;20014;-68
2022/05/10 10:15:57;;;;;;;17.65;10.52;;;;;;;17.24;86.98;101067.22;7387647;19;20018;-67
2022/05/10 10:18:43;;;;;;;16.27;9.88;;;;;;;17.27;87.40;101056.19;7390717;19;20003;-68
2022/05/10 10:21:16;;;;;;;16.23;8.80;;;;;;;17.27;87.62;101061.50;7390527;19;20035;-67
2022/05/10 10:23:48;;;;;;;16.10;8.40;;;;;;;17.24;87.41;101055.75;7390936;19;20014;-69
2022/05/10 10:26:19;;;;;;;20.13;9.25;;;;;;;17.21;87.81;101056.97;7391167;19;20054;-67
2022/05/10 10:28:53;;;;;;;18.70;11.40;;;;;;;17.22;88.58;101055.94;7392081;19;20087;-69
2022/05/10 10:31:27;;;;;;;15.07;7.60;;;;;;;17.18;87.82;101057.34;7388061;19;20184;-69
2022/05/10 10:34:03;;;;;;;10.85;7.20;;;;;;;17.18;87.74;101067.97;7390204;19;20018;-67
2022/05/10 10:36:41;;;;;;;12.05;7.68;;;;;;;17.18;87.58;101053.84;7390213;19;20034;-68
2022/05/10 10:39:16;;;;;;;19.38;8.10;;;;;;;17.19;87.77;101047.53;7385861;19;20014;-67
2022/05/10 10:41:46;;;;;;;15.05;9.68;;;;;;;17.21;87.75;101034.88;7388830;19;20037;-67
2022/05/10 10:44:19;;;;;;;15.35;8.82;;;;;;;17.27;88.39;101044.75;7386740;19;20033;-68
2022/05/10 10:46:57;;;;;;;13.05;6.28;;;;;;;17.30;87.06;101049.69;7389278;19;20011;-67
2022/05/10 10:49:34;;;;;;;9.32;4.88;;;;;;;17.34;86.41;101049.09;7387016;19;20033;-69
2022/05/10 10:52:02;;;;;;;8.98;5.00;;;;;;;17.39;85.76;101038.69;7391868;19;20010;-67
2022/05/10 10:54:31;;;;;;;8.57;4.68;;;;;;;17.45;85.85;101039.78;7389098;19;20014;-67
2022/05/10 10:57:01;;;;;;;18.27;9.88;;;;;;;17.49;85.56;101041.84;7387347;19;20021;-67
2022/05/10 10:59:56;;;;;;;9.65;5.70;;;;;;;17.52;84.87;101040.66;7391282;19;20142;-68
2022/05/10 11:02:29;;;;;;;11.02;4.43;;;;;;;17.57;83.93;101050.72;7387400;19;20011;-68
2022/05/10 11:05:06;;;;;;;8.20;4.75;;;;;;;17.60;83.48;101043.19;7386885;19;20017;-68
2022/05/10 11:07:43;;;;;;;7.13;3.47;;;;;;;17.62;82.82;101043.84;7386476;19;20011;-69
2022/05/10 11:10:13;;;;;;;7.57;4.72;;;;;;;17.63;82.11;101042.81;7388327;19;20014;-67
2022/05/10 11:12:48;;;;;;;7.68;4.30;;;;;;;17.64;81.52;101048.94;7388376;19;20045;-68
2022/05/10 11:15:27;;;;;;;7.65;4.00;;;;;;;17.61;81.60;101039.53;7388176;19;20010;-68
2022/05/10 11:18:02;;;;;;;7.70;3.78;;;;;;;17.62;81.63;101035.03;7388900;19;20037;-67
2022/05/10 11:20:39;;;;;;;11.45;7.03;;;;;;;17.66;81.75;101046.94;7386213;19;20492;-67
2022/05/10 11:23:11;;;;;;;7.22;4.25;;;;;;;17.66;81.55;101036.28;7387234;19;20018;-68
2022/05/10 11:25:46;;;;;;;8.00;4.93;;;;;;;17.65;81.82;101039.97;7386382;19;20006;-68
2022/05/10 11:28:26;;;;;;;11.68;4.80;;;;;;;17.64;81.45;101032.97;7389468;19;20007;-69
2022/05/10 11:31:00;;;;;;;7.80;4.75;;;;;;;17.61;81.52;101034.22;7392193;19;20539;-68
2022/05/10 11:33:36;;;;;;;11.40;4.28;;;;;;;17.60;81.59;101043.19;7387816;19;20007;-69
2022/05/10 11:36:14;;;;;;;10.27;5.13;;;;;;;17.61;82.14;101041.38;7386085;19;20440;-68
2022/05/10 11:38:48;;;;;;;7.72;3.97;;;;;;;17.64;82.14;101047.13;7387542;19;20093;-69
2022/05/10 11:41:25;;;;;;;6.53;3.70;;;;;;;17.68;82.15;101044.88;7386784;19;20018;-67
2022/05/10 11:43:58;;;;;;;8.05;4.63;;;;;;;17.65;81.82;101039.97;7384936;19;20023;-68
2022/05/10 11:46:29;;;;;;;7.63;3.83;;;;;;;17.70;82.20;101046.34;7386697;19;20037;-68
2022/05/10 11:49:06;;;;;;;5.43;3.30;;;;;;;17.69;81.61;101043.88;7388725;19;20480;-68
2022/05/10 11:51:42;;;;;;;5.65;3.00;;;;;;;17.68;81.41;101039.56;7389475;19;20006;-67
2022/05/10 11:54:16;;;;;;;6.93;3.47;;;;;;;17.62;81.17;101038.53;7384782;19;20026;-68
2022/05/10 11:56:45;;;;;;;8.48;3.17;;;;;;;17.60;81.71;101037.06;7385534;19;20037;-68
2022/05/10 11:59:20;;;;;;;7.97;3.08;;;;;;;17.57;82.25;101032.94;7387589;19;20543;-67
2022/05/10 12:01:51;;;;;;;4.78;2.10;;;;;;;17.61;81.60;101030.72;7383117;19;20648;-68
2022/05/10 12:04:25;;;;;;;5.55;1.80;;;;;;;17.64;81.39;101036.47;7384521;19;20469;-68